Terminal Aerodrome Forecast
Issued by NWS Dodge City, KS

Home | Current Version | Previous Version | Graphics & Text | Print | Product List | Glossary Off
Versions: 1 2 3 4 5 6 7 8 9 10 11 12 13 14 15 16 17 18 19 20 21 22 23 24 25 26 27 28 29 30 31 32 33 34 35 36 37 38 39 40 41 42 43 44 45 46 47 48 49 50

544
FTUS43 KDDC 271735
TAFDDC
TAF
KDDC 271735Z 2718/2818 VRB06KT P6SM FEW015 BKN025
     FM271900 03010KT P6SM BKN040
     FM272100 36012KT P6SM VCTS SCT050CB
     FM280100 24007KT P6SM BKN050
     FM280300 35010KT P6SM BKN150=

USA.gov is the U.S. government's official web portal to all federal, state and local government web resources and services.